Time;durP1;ratioP1;P1;durP2;ratioP2;P2;SDS_P1;SDS_P2;PMS_P1;PMS_P2;Temp;Humidity;BMP_temperature;BMP_pressure;BME280_temperature;BME280_humidity;BME280_pressure;Samples;Min_cycle;Max_cycle;Signal;HPM_P1;HPM_P2
2023/01/20 00:00:13;;;;;;;5.90;2.30;;;;;;;;;;5050580;28;20048;-69
2023/01/20 00:02:39;;;;;;;3.35;2.30;;;;;;;;;;5049044;28;20052;-69
2023/01/20 00:05:05;;;;;;;4.75;2.72;;;;;;;;;;5050525;28;20071;-69
2023/01/20 00:07:33;;;;;;;3.65;2.80;;;;;;;;;;5050610;28;20083;-69
2023/01/20 00:09:59;;;;;;;5.70;2.78;;;;;;;;;;5050191;28;20037;-69
2023/01/20 00:12:25;;;;;;;4.15;2.92;;;;;;;;;;5050331;28;20037;-69
2023/01/20 00:14:51;;;;;;;3.88;2.70;;;;;;;;;;5050293;28;20036;-69
2023/01/20 00:17:17;;;;;;;4.80;3.00;;;;;;;;;;5050677;28;20043;-69
2023/01/20 00:19:43;;;;;;;4.68;2.83;;;;;;;;;;5049710;28;20056;-69
2023/01/20 00:22:09;;;;;;;4.15;3.08;;;;;;;;;;5050537;28;20053;-69
2023/01/20 00:24:35;;;;;;;3.63;2.90;;;;;;;;;;5050075;28;20044;-69
2023/01/20 00:27:02;;;;;;;5.18;3.83;;;;;;;;;;5032056;28;20052;-68
2023/01/20 00:29:28;;;;;;;6.25;3.65;;;;;;;;;;5050485;28;20033;-68
2023/01/20 00:31:54;;;;;;;5.63;4.10;;;;;;;;;;5050234;28;20045;-68
2023/01/20 00:34:20;;;;;;;4.97;4.03;;;;;;;;;;5031645;28;20071;-68
2023/01/20 00:36:46;;;;;;;6.07;4.55;;;;;;;;;;5050342;28;20068;-68
2023/01/20 00:39:12;;;;;;;8.43;5.40;;;;;;;;;;5050168;28;20069;-68
2023/01/20 00:41:38;;;;;;;9.55;5.88;;;;;;;;;;5031785;28;20053;-68
2023/01/20 00:44:04;;;;;;;10.27;6.53;;;;;;;;;;5050101;28;20041;-68
2023/01/20 00:46:30;;;;;;;12.68;7.55;;;;;;;;;;5049978;28;20148;-68
2023/01/20 00:48:56;;;;;;;11.40;7.13;;;;;;;;;;5049673;28;20040;-68
2023/01/20 00:51:22;;;;;;;12.52;7.35;;;;;;;;;;5049733;28;20041;-68
2023/01/20 00:53:48;;;;;;;15.05;8.13;;;;;;;;;;5032025;28;20079;-68
2023/01/20 00:56:14;;;;;;;14.88;7.80;;;;;;;;;;5049714;28;20106;-68
2023/01/20 00:58:43;;;;;;;13.32;8.07;;;;;;;;;;5050294;28;20527;-68
2023/01/20 01:01:09;;;;;;;13.38;8.45;;;;;;;;;;5049949;28;20056;-68
2023/01/20 01:03:35;;;;;;;15.45;8.50;;;;;;;;;;5049557;28;20667;-68
2023/01/20 01:06:07;;;;;;;15.07;9.18;;;;;;;;;;5050028;28;20383;-68
2023/01/20 01:08:33;;;;;;;;;;;;;;;;;;5050438;28;20563;-68
2023/01/20 01:10:59;;;;;;;16.48;8.98;;;;;;;;;;5031364;28;19932;-68
2023/01/20 01:13:26;;;;;;;17.23;9.68;;;;;;;;;;5049581;28;20040;-68
2023/01/20 01:15:52;;;;;;;17.25;10.18;;;;;;;;;;5050091;28;20041;-68
2023/01/20 01:18:18;;;;;;;17.80;9.82;;;;;;;;;;5050940;28;20107;-68
2023/01/20 01:20:44;;;;;;;17.25;10.05;;;;;;;;;;5053199;28;20501;-68
2023/01/20 01:23:10;;;;;;;16.08;10.07;;;;;;;;;;5053474;28;20039;-68
2023/01/20 01:25:37;;;;;;;16.35;8.88;;;;;;;;;;5053023;28;20041;-69
2023/01/20 01:28:03;;;;;;;15.20;9.10;;;;;;;;;;5053476;28;20565;-69
2023/01/20 01:30:29;;;;;;;14.77;9.63;;;;;;;;;;5053555;28;20677;-69
2023/01/20 01:32:55;;;;;;;14.10;8.45;;;;;;;;;;5052938;28;20041;-68
2023/01/20 01:35:21;;;;;;;12.82;8.60;;;;;;;;;;5051958;28;20051;-68
2023/01/20 01:37:47;;;;;;;16.33;9.93;;;;;;;;;;5052839;28;20037;-68
2023/01/20 01:40:13;;;;;;;12.45;8.88;;;;;;;;;;5052642;28;20056;-68
2023/01/20 01:42:40;;;;;;;13.05;8.52;;;;;;;;;;5034907;28;20041;-68
2023/01/20 01:45:09;;;;;;;17.92;8.40;;;;;;;;;;5052846;28;20049;-68
2023/01/20 01:47:41;;;;;;;13.60;8.85;;;;;;;;;;5052687;28;20528;-68
2023/01/20 01:50:08;;;;;;;16.30;8.63;;;;;;;;;;5053257;28;20079;-68
2023/01/20 01:52:35;;;;;;;12.80;7.95;;;;;;;;;;5052890;28;20037;-68
2023/01/20 01:55:02;;;;;;;12.52;8.27;;;;;;;;;;5052582;28;20037;-68
2023/01/20 01:57:29;;;;;;;14.40;8.73;;;;;;;;;;5052856;28;20075;-68
2023/01/20 01:59:55;;;;;;;14.30;8.52;;;;;;;;;;5052912;28;20045;-68
2023/01/20 02:02:21;;;;;;;14.52;9.38;;;;;;;;;;5052449;28;20460;-68
2023/01/20 02:04:47;;;;;;;13.70;9.35;;;;;;;;;;5052569;28;20095;-68
2023/01/20 02:07:15;;;;;;;16.10;9.48;;;;;;;;;;5034680;28;20045;-68
2023/01/20 02:09:41;;;;;;;13.57;9.75;;;;;;;;;;5052134;28;20040;-68
2023/01/20 02:12:10;;;;;;;14.93;9.23;;;;;;;;;;5052636;28;20041;-68
2023/01/20 02:14:42;;;;;;;16.38;10.30;;;;;;;;;;5052668;28;20112;-68
2023/01/20 02:17:25;;;;;;;14.77;9.55;;;;;;;;;;5052241;28;20060;-68
2023/01/20 02:19:57;;;;;;;16.23;9.85;;;;;;;;;;5052282;28;20140;-68
2023/01/20 02:22:34;;;;;;;19.67;10.95;;;;;;;;;;5052473;28;20045;-68
2023/01/20 02:25:18;;;;;;;17.88;10.60;;;;;;;;;;5052040;28;20044;-68
2023/01/20 02:27:59;;;;;;;19.83;11.32;;;;;;;;;;5052453;28;20041;-68
2023/01/20 02:30:31;;;;;;;17.92;10.95;;;;;;;;;;5052222;28;20079;-68
2023/01/20 02:32:57;;;;;;;19.42;11.30;;;;;;;;;;5051713;28;20045;-68
2023/01/20 02:35:50;;;;;;;19.60;12.45;;;;;;;;;;5034446;28;20047;-68
2023/01/20 02:38:23;;;;;;;19.02;11.35;;;;;;;;;;5047892;28;20045;-68
2023/01/20 02:40:55;;;;;;;23.88;12.65;;;;;;;;;;5052185;28;20382;-68
2023/01/20 02:43:21;;;;;;;;;;;;;;;;;;5052463;28;20124;-68
2023/01/20 02:45:59;;;;;;;20.55;11.48;;;;;;;;;;5051455;28;20023;-68
2023/01/20 02:48:38;;;;;;;21.73;12.40;;;;;;;;;;5051968;28;20403;-68
2023/01/20 02:51:06;;;;;;;21.73;11.80;;;;;;;;;;5051985;28;20135;-68
2023/01/20 02:53:39;;;;;;;27.00;13.20;;;;;;;;;;5051250;28;20080;-68
2023/01/20 02:56:06;;;;;;;26.58;13.52;;;;;;;;;;5033945;28;20048;-68
2023/01/20 02:58:32;;;;;;;27.70;13.73;;;;;;;;;;5051583;28;20045;-68
2023/01/20 03:01:01;;;;;;;24.10;13.35;;;;;;;;;;5051261;28;20040;-68
2023/01/20 03:03:29;;;;;;;25.95;13.50;;;;;;;;;;5051489;28;20695;-68
2023/01/20 03:05:57;;;;;;;23.08;12.27;;;;;;;;;;5033575;28;20517;-68
2023/01/20 03:08:24;;;;;;;24.35;13.32;;;;;;;;;;5033297;28;20041;-68
2023/01/20 03:10:52;;;;;;;24.50;13.00;;;;;;;;;;5031290;28;20079;-68
2023/01/20 03:13:21;;;;;;;22.10;12.48;;;;;;;;;;5048364;28;20037;-68
2023/01/20 03:16:04;;;;;;;22.35;12.75;;;;;;;;;;5051083;28;20036;-69
2023/01/20 03:18:30;;;;;;;24.17;12.13;;;;;;;;;;5033500;28;20132;-69
2023/01/20 03:20:57;;;;;;;24.90;12.35;;;;;;;;;;5050667;28;20052;-69
2023/01/20 03:23:24;;;;;;;24.33;12.50;;;;;;;;;;5050850;28;20048;-69
2023/01/20 03:26:08;;;;;;;26.10;13.40;;;;;;;;;;5006685;28;20053;-69
2023/01/20 03:28:34;;;;;;;22.33;11.82;;;;;;;;;;5051282;28;20725;-69
2023/01/20 03:31:01;;;;;;;22.40;11.48;;;;;;;;;;5050666;28;20441;-68
2023/01/20 03:33:27;;;;;;;24.83;12.45;;;;;;;;;;5050831;28;20044;-68
2023/01/20 03:35:53;;;;;;;23.83;12.63;;;;;;;;;;5050814;28;20045;-68
2023/01/20 03:38:20;;;;;;;22.55;12.35;;;;;;;;;;5050885;28;20375;-68
2023/01/20 03:40:49;;;;;;;23.58;12.35;;;;;;;;;;5050463;28;20045;-68
2023/01/20 03:43:19;;;;;;;23.90;12.55;;;;;;;;;;5050933;28;20041;-68
2023/01/20 03:45:54;;;;;;;21.38;11.40;;;;;;;;;;5050415;28;20468;-68
2023/01/20 03:48:47;;;;;;;24.92;13.13;;;;;;;;;;5033324;28;20040;-68
2023/01/20 03:51:19;;;;;;;22.83;11.73;;;;;;;;;;5050705;28;20037;-68
2023/01/20 03:53:52;;;;;;;22.35;11.60;;;;;;;;;;5032651;28;20047;-68
2023/01/20 03:56:33;;;;;;;22.20;11.48;;;;;;;;;;5050598;28;20041;-68
2023/01/20 03:59:00;;;;;;;23.20;10.85;;;;;;;;;;5050716;28;20048;-68
2023/01/20 04:01:34;;;;;;;22.80;12.07;;;;;;;;;;5050208;28;20170;-68
2023/01/20 04:04:00;;;;;;;22.73;11.60;;;;;;;;;;5050450;28;20094;-68
2023/01/20 04:06:28;;;;;;;20.80;10.85;;;;;;;;;;5050619;28;20056;-68
2023/01/20 04:08:55;;;;;;;23.48;11.68;;;;;;;;;;5050070;28;20045;-68
2023/01/20 04:11:21;;;;;;;21.88;11.73;;;;;;;;;;5050024;28;20044;-68
2023/01/20 04:13:49;;;;;;;23.38;11.13;;;;;;;;;;5032367;28;20037;-68
2023/01/20 04:16:17;;;;;;;20.35;11.15;;;;;;;;;;5049736;28;20040;-68
2023/01/20 04:18:45;;;;;;;20.83;11.48;;;;;;;;;;5050574;28;20048;-68
2023/01/20 04:21:38;;;;;;;21.80;10.95;;;;;;;;;;5050339;28;20061;-68
2023/01/20 04:24:04;;;;;;;26.15;11.93;;;;;;;;;;5029802;28;20126;-68
2023/01/20 04:26:30;;;;;;;24.48;12.02;;;;;;;;;;5050234;28;20484;-68
2023/01/20 04:28:56;;;;;;;22.10;10.70;;;;;;;;;;5050531;28;20273;-68
2023/01/20 04:31:22;;;;;;;20.67;11.25;;;;;;;;;;5050091;28;20548;-68
2023/01/20 04:33:48;;;;;;;22.35;11.07;;;;;;;;;;5050381;28;20067;-68
2023/01/20 04:36:14;;;;;;;20.77;11.02;;;;;;;;;;5050058;28;20049;-68
2023/01/20 04:38:40;;;;;;;21.00;11.75;;;;;;;;;;5031846;28;20049;-68
2023/01/20 04:41:06;;;;;;;21.42;10.55;;;;;;;;;;5050298;28;20124;-68
2023/01/20 04:43:32;;;;;;;21.85;11.43;;;;;;;;;;5049737;28;20103;-68
2023/01/20 04:45:58;;;;;;;27.88;13.18;;;;;;;;;;5049863;28;20087;-68
2023/01/20 04:48:24;;;;;;;22.88;12.38;;;;;;;;;;5050150;28;20053;-68
2023/01/20 04:50:50;;;;;;;23.52;12.55;;;;;;;;;;5050345;28;20075;-68
2023/01/20 04:53:18;;;;;;;24.98;12.50;;;;;;;;;;5050756;28;20041;-68
2023/01/20 04:55:44;;;;;;;23.48;12.35;;;;;;;;;;5036190;28;20064;-68
2023/01/20 04:58:10;;;;;;;23.55;12.05;;;;;;;;;;5053981;28;20045;-68
2023/01/20 05:00:36;;;;;;;23.98;12.63;;;;;;;;;;5053465;28;20041;-68
2023/01/20 05:03:02;;;;;;;26.98;12.70;;;;;;;;;;5053881;28;20052;-68
2023/01/20 05:05:28;;;;;;;24.27;12.43;;;;;;;;;;5035946;28;20051;-68
2023/01/20 05:07:56;;;;;;;23.38;11.88;;;;;;;;;;5035727;28;20106;-68
2023/01/20 05:10:22;;;;;;;23.45;12.57;;;;;;;;;;5053912;28;20084;-68
2023/01/20 05:12:48;;;;;;;23.60;12.63;;;;;;;;;;5035585;28;20148;-68
2023/01/20 05:15:14;;;;;;;24.70;12.45;;;;;;;;;;5053504;28;20091;-68
2023/01/20 05:17:40;;;;;;;25.60;12.68;;;;;;;;;;5053602;28;20123;-68
2023/01/20 05:20:06;;;;;;;23.73;12.25;;;;;;;;;;5053932;28;20693;-68
2023/01/20 05:22:32;;;;;;;28.50;14.20;;;;;;;;;;5035498;28;20055;-68
2023/01/20 05:24:59;;;;;;;23.90;12.98;;;;;;;;;;5053864;28;20045;-68
2023/01/20 05:27:25;;;;;;;25.02;13.70;;;;;;;;;;5016158;28;20041;-68
2023/01/20 05:29:51;;;;;;;24.80;13.32;;;;;;;;;;5033362;28;20080;-68
2023/01/20 05:32:17;;;;;;;23.50;12.68;;;;;;;;;;5033974;28;20787;-68
2023/01/20 05:34:43;;;;;;;25.10;13.45;;;;;;;;;;5033640;28;20120;-68
2023/01/20 05:37:09;;;;;;;26.52;13.40;;;;;;;;;;5033529;28;20037;-68
2023/01/20 05:39:35;;;;;;;27.55;13.55;;;;;;;;;;5033768;28;20042;-68
2023/01/20 05:42:01;;;;;;;26.92;13.93;;;;;;;;;;5033884;28;20037;-68
2023/01/20 05:44:27;;;;;;;25.02;12.75;;;;;;;;;;5033139;28;20751;-68
2023/01/20 05:46:53;;;;;;;28.63;13.98;;;;;;;;;;5033648;28;20033;-68
2023/01/20 05:49:19;;;;;;;24.48;13.38;;;;;;;;;;5032221;28;20045;-68
2023/01/20 05:51:45;;;;;;;29.63;15.15;;;;;;;;;;5033003;28;20037;-68
2023/01/20 05:54:11;;;;;;;26.90;14.60;;;;;;;;;;5015370;28;20041;-68
2023/01/20 05:56:37;;;;;;;29.58;14.52;;;;;;;;;;5033558;28;20140;-68
2023/01/20 05:59:05;;;;;;;30.63;15.05;;;;;;;;;;5032687;28;20091;-68
2023/01/20 06:01:31;;;;;;;32.08;15.45;;;;;;;;;;5015286;28;20045;-68
2023/01/20 06:03:57;;;;;;;29.20;14.52;;;;;;;;;;5035418;28;20645;-68
2023/01/20 06:06:23;;;;;;;30.48;15.20;;;;;;;;;;5052776;28;20045;-68
2023/01/20 06:08:51;;;;;;;33.17;16.25;;;;;;;;;;5052824;28;20115;-68
2023/01/20 06:11:17;;;;;;;32.45;16.25;;;;;;;;;;5033295;28;20045;-68
2023/01/20 06:13:43;;;;;;;33.22;15.48;;;;;;;;;;5051733;28;20056;-68
2023/01/20 06:16:09;;;;;;;33.30;16.33;;;;;;;;;;5052522;28;20499;-68
2023/01/20 06:18:35;;;;;;;32.95;16.20;;;;;;;;;;5052489;28;20044;-68
2023/01/20 06:21:01;;;;;;;33.80;15.30;;;;;;;;;;5051828;28;20057;-68
2023/01/20 06:23:28;;;;;;;30.35;15.15;;;;;;;;;;5052609;28;20044;-68
2023/01/20 06:26:01;;;;;;;30.95;15.52;;;;;;;;;;5052200;28;20047;-68
2023/01/20 06:28:27;;;;;;;32.78;15.93;;;;;;;;;;5052260;28;20374;-68
2023/01/20 06:31:00;;;;;;;36.22;17.95;;;;;;;;;;5052380;28;20037;-68
2023/01/20 06:33:26;;;;;;;35.83;17.75;;;;;;;;;;5034394;28;20047;-68
2023/01/20 06:35:54;;;;;;;37.40;17.55;;;;;;;;;;5052169;28;20568;-68
2023/01/20 06:38:20;;;;;;;35.75;17.23;;;;;;;;;;5034558;28;20051;-67
2023/01/20 06:40:46;;;;;;;38.75;16.33;;;;;;;;;;5050878;28;20468;-70
2023/01/20 06:43:12;;;;;;;35.53;17.63;;;;;;;;;;5051030;28;20060;-69
2023/01/20 06:45:38;;;;;;;36.10;17.85;;;;;;;;;;5033564;28;20052;-68
2023/01/20 06:48:04;;;;;;;35.50;17.63;;;;;;;;;;5052041;28;20037;-67
2023/01/20 06:50:30;;;;;;;35.40;17.85;;;;;;;;;;5051248;28;20070;-67
2023/01/20 06:52:56;;;;;;;37.90;18.55;;;;;;;;;;5052192;28;20060;-69
2023/01/20 06:55:22;;;;;;;36.40;18.50;;;;;;;;;;5033987;28;20044;-68
2023/01/20 06:57:48;;;;;;;37.35;17.60;;;;;;;;;;5033110;28;20045;-68
2023/01/20 07:00:14;;;;;;;36.28;16.95;;;;;;;;;;5033772;28;20044;-68
2023/01/20 07:02:40;;;;;;;36.45;18.23;;;;;;;;;;5033303;28;20041;-70
2023/01/20 07:05:08;;;;;;;33.13;17.33;;;;;;;;;;5033131;28;20457;-69
2023/01/20 07:07:34;;;;;;;36.00;17.85;;;;;;;;;;5033523;28;20111;-68
2023/01/20 07:10:00;;;;;;;38.40;17.38;;;;;;;;;;5036179;28;20044;-68
2023/01/20 07:12:26;;;;;;;36.83;18.23;;;;;;;;;;5051407;28;20040;-69
2023/01/20 07:14:52;;;;;;;41.65;19.73;;;;;;;;;;5027555;28;20423;-68
2023/01/20 07:17:18;;;;;;;43.90;19.70;;;;;;;;;;5050024;28;20052;-69
2023/01/20 07:19:44;;;;;;;38.35;19.25;;;;;;;;;;5050357;28;20053;-68
2023/01/20 07:22:10;;;;;;;36.40;18.25;;;;;;;;;;5050660;28;20383;-68
2023/01/20 07:24:36;;;;;;;36.13;18.77;;;;;;;;;;5050038;28;20029;-69
2023/01/20 07:27:02;;;;;;;38.08;18.98;;;;;;;;;;5031945;28;20048;-69
2023/01/20 07:29:29;;;;;;;43.53;20.13;;;;;;;;;;5050434;28;20471;-69
2023/01/20 07:31:55;;;;;;;36.90;18.60;;;;;;;;;;5032646;28;20415;-70
2023/01/20 07:34:21;;;;;;;38.28;19.88;;;;;;;;;;5014733;28;20037;-70
2023/01/20 07:36:47;;;;;;;43.67;19.50;;;;;;;;;;5032163;28;20393;-68
2023/01/20 07:39:14;;;;;;;42.80;20.88;;;;;;;;;;5032528;28;20040;-69
2023/01/20 07:41:42;;;;;;;43.35;20.00;;;;;;;;;;5031281;28;20630;-69
2023/01/20 07:44:09;;;;;;;40.65;19.50;;;;;;;;;;5031443;28;20399;-70
2023/01/20 07:46:35;;;;;;;39.63;20.17;;;;;;;;;;5032303;28;20124;-70
2023/01/20 07:49:01;;;;;;;45.03;20.55;;;;;;;;;;5032114;28;20453;-66
2023/01/20 07:51:27;;;;;;;39.05;20.30;;;;;;;;;;5050099;28;20048;-70
2023/01/20 07:53:53;;;;;;;37.40;19.48;;;;;;;;;;5039351;28;20095;-70
2023/01/20 07:56:21;;;;;;;42.17;20.75;;;;;;;;;;5031374;28;20055;-71
2023/01/20 07:58:49;;;;;;;39.10;19.50;;;;;;;;;;5015437;28;20045;-69
2023/01/20 08:01:21;;;;;;;45.10;20.33;;;;;;;;;;5031971;28;20781;-66
2023/01/20 08:03:47;;;;;;;44.83;20.27;;;;;;;;;;5030697;28;20129;-67
2023/01/20 08:06:15;;;;;;;47.58;21.70;;;;;;;;;;5031901;28;20049;-66
2023/01/20 08:08:41;;;;;;;44.53;20.13;;;;;;;;;;5031633;28;20037;-68
2023/01/20 08:11:07;;;;;;;39.05;19.20;;;;;;;;;;5043734;28;20489;-70
2023/01/20 08:13:33;;;;;;;41.42;18.92;;;;;;;;;;5015130;28;20040;-69
2023/01/20 08:16:00;;;;;;;45.17;21.25;;;;;;;;;;5031800;28;20041;-70
2023/01/20 08:18:27;;;;;;;44.28;20.98;;;;;;;;;;5031176;28;20037;-69
2023/01/20 08:20:53;;;;;;;42.15;20.35;;;;;;;;;;5014405;28;20065;-69
2023/01/20 08:23:19;;;;;;;42.65;20.60;;;;;;;;;;5011357;28;20132;-69
2023/01/20 08:25:45;;;;;;;40.60;19.63;;;;;;;;;;4994648;28;20144;-67
2023/01/20 08:28:11;;;;;;;45.50;20.65;;;;;;;;;;5034357;28;20037;-71
2023/01/20 08:30:37;;;;;;;47.33;21.88;;;;;;;;;;5017894;28;20034;-69
2023/01/20 08:33:03;;;;;;;43.40;20.40;;;;;;;;;;5036122;28;20707;-68
2023/01/20 08:35:29;;;;;;;45.90;20.60;;;;;;;;;;5035702;28;20041;-69
2023/01/20 08:37:56;;;;;;;42.85;20.73;;;;;;;;;;5013495;28;20049;-68
2023/01/20 08:40:22;;;;;;;47.05;21.17;;;;;;;;;;5030577;28;20034;-68
2023/01/20 08:42:48;;;;;;;49.75;22.10;;;;;;;;;;5016763;28;20669;-68
2023/01/20 08:45:14;;;;;;;50.63;22.30;;;;;;;;;;5014301;28;20037;-69
2023/01/20 08:47:43;;;;;;;50.40;21.33;;;;;;;;;;5017052;28;20083;-68
2023/01/20 08:50:09;;;;;;;49.63;22.75;;;;;;;;;;5016931;28;20061;-68
2023/01/20 08:52:36;;;;;;;47.75;20.60;;;;;;;;;;5016013;28;20471;-69
2023/01/20 08:55:02;;;;;;;49.42;21.35;;;;;;;;;;5015171;28;20049;-69
2023/01/20 08:57:28;;;;;;;55.17;23.08;;;;;;;;;;5013893;28;20068;-68
2023/01/20 08:59:54;;;;;;;53.47;23.13;;;;;;;;;;5016338;28;20414;-70
2023/01/20 09:02:23;;;;;;;52.28;22.90;;;;;;;;;;5011673;28;20492;-68
2023/01/20 09:04:50;;;;;;;51.45;22.25;;;;;;;;;;5033811;28;20438;-68
2023/01/20 09:07:18;;;;;;;51.63;22.73;;;;;;;;;;5034130;28;20442;-69
2023/01/20 09:09:45;;;;;;;50.45;22.52;;;;;;;;;;5012211;28;20076;-67
2023/01/20 09:12:11;;;;;;;53.88;22.42;;;;;;;;;;5029480;28;20073;-69
2023/01/20 09:14:37;;;;;;;52.35;23.25;;;;;;;;;;5016524;28;20037;-68
2023/01/20 09:17:03;;;;;;;55.35;23.98;;;;;;;;;;5031854;28;20041;-68
2023/01/20 09:19:29;;;;;;;54.05;24.85;;;;;;;;;;5032604;28;20041;-68
2023/01/20 09:21:55;;;;;;;53.85;22.88;;;;;;;;;;5035612;28;20041;-68
2023/01/20 09:24:21;;;;;;;50.97;21.33;;;;;;;;;;5053044;28;20037;-69
2023/01/20 09:26:48;;;;;;;49.38;22.05;;;;;;;;;;5026337;28;20092;-70
2023/01/20 09:29:16;;;;;;;56.08;23.23;;;;;;;;;;5033942;28;20045;-70
2023/01/20 09:31:44;;;;;;;53.63;21.63;;;;;;;;;;5018089;28;20130;-70
2023/01/20 09:34:10;;;;;;;50.83;21.98;;;;;;;;;;5034878;28;20045;-70
2023/01/20 09:36:36;;;;;;;53.35;21.83;;;;;;;;;;5032509;28;20041;-71
2023/01/20 09:44:50;;;;;;;54.85;22.80;;;;;;;;;;5021791;28;20068;-71
2023/01/20 09:47:35;;;;;;;50.15;20.80;;;;;;;;;;5029314;28;20052;-70
2023/01/20 09:53:20;;;;;;;51.53;21.45;;;;;;;;;;5024049;28;20810;-70
2023/01/20 09:55:49;;;;;;;46.30;20.85;;;;;;;;;;5029255;28;20426;-71
2023/01/20 09:58:34;;;;;;;45.75;20.45;;;;;;;;;;5029143;28;20126;-68
2023/01/20 10:01:19;;;;;;;44.83;19.90;;;;;;;;;;5024398;28;20106;-68
2023/01/20 10:03:50;;;;;;;47.95;20.13;;;;;;;;;;5031915;28;20053;-68
2023/01/20 10:06:23;;;;;;;41.80;19.92;;;;;;;;;;5048552;28;20037;-71
2023/01/20 10:08:55;;;;;;;43.65;19.48;;;;;;;;;;5030118;28;20051;-69
2023/01/20 10:11:22;;;;;;;48.33;20.38;;;;;;;;;;5030314;28;20076;-69
2023/01/20 10:14:10;;;;;;;41.72;17.70;;;;;;;;;;5031210;28;20522;-69
2023/01/20 10:16:40;;;;;;;41.70;17.67;;;;;;;;;;5049251;28;20395;-69
2023/01/20 10:19:12;;;;;;;38.35;17.80;;;;;;;;;;5029523;28;20128;-71
2023/01/20 10:21:43;;;;;;;43.50;20.23;;;;;;;;;;5031495;28;20053;-69
2023/01/20 10:24:22;;;;;;;39.20;17.73;;;;;;;;;;5032517;28;20041;-68
2023/01/20 10:26:54;;;;;;;39.85;18.70;;;;;;;;;;5048743;28;20045;-69
2023/01/20 10:29:28;;;;;;;46.63;18.92;;;;;;;;;;5048408;28;20041;-69
2023/01/20 10:32:02;;;;;;;49.88;20.17;;;;;;;;;;5030030;28;20487;-69
2023/01/20 10:34:31;;;;;;;46.92;19.10;;;;;;;;;;5030575;28;20049;-69
2023/01/20 10:37:05;;;;;;;43.08;20.23;;;;;;;;;;5032698;28;20056;-68
2023/01/20 10:39:51;;;;;;;46.33;19.67;;;;;;;;;;5046339;28;20475;-68
2023/01/20 10:42:18;;;;;;;50.42;19.48;;;;;;;;;;5046692;28;20037;-69
2023/01/20 10:44:45;;;;;;;42.05;18.77;;;;;;;;;;5031508;28;20040;-67
2023/01/20 10:47:16;;;;;;;42.70;19.40;;;;;;;;;;5048816;28;20511;-68
2023/01/20 10:49:51;;;;;;;46.28;19.85;;;;;;;;;;5048724;28;20037;-71
2023/01/20 10:52:20;;;;;;;40.83;18.60;;;;;;;;;;5028727;28;20041;-71
2023/01/20 10:54:52;;;;;;;40.75;19.45;;;;;;;;;;5041229;28;20037;-70
2023/01/20 10:57:18;;;;;;;44.38;19.00;;;;;;;;;;5029844;28;20586;-69
2023/01/20 10:59:53;;;;;;;47.55;19.10;;;;;;;;;;5027357;28;20041;-68
2023/01/20 11:02:25;;;;;;;43.90;18.73;;;;;;;;;;5048097;28;20056;-69
2023/01/20 11:04:57;;;;;;;40.97;18.40;;;;;;;;;;5045539;28;20124;-70
2023/01/20 11:07:24;;;;;;;44.13;18.33;;;;;;;;;;5029828;28;20044;-69
2023/01/20 11:09:50;;;;;;;40.15;18.92;;;;;;;;;;5047977;28;20494;-69
2023/01/20 11:12:27;;;;;;;38.40;17.33;;;;;;;;;;5031514;28;20033;-70
2023/01/20 11:14:53;;;;;;;43.90;19.52;;;;;;;;;;5030503;28;20049;-70
2023/01/20 11:17:19;;;;;;;43.05;17.98;;;;;;;;;;5049112;28;20048;-70
2023/01/20 11:19:53;;;;;;;43.25;18.75;;;;;;;;;;5047520;28;20077;-70
2023/01/20 11:22:28;;;;;;;40.95;18.35;;;;;;;;;;5028708;28;20063;-69
2023/01/20 11:24:57;;;;;;;38.80;17.73;;;;;;;;;;5030120;28;20131;-69
2023/01/20 11:27:25;;;;;;;43.95;18.38;;;;;;;;;;5030040;28;20140;-69
2023/01/20 11:29:55;;;;;;;39.95;17.83;;;;;;;;;;5031045;28;20091;-68
2023/01/20 11:32:26;;;;;;;43.50;17.25;;;;;;;;;;5048770;28;20043;-68
2023/01/20 11:34:53;;;;;;;41.15;16.77;;;;;;;;;;5048019;28;20036;-68
2023/01/20 11:37:20;;;;;;;36.92;17.58;;;;;;;;;;5030456;28;20087;-68
2023/01/20 11:39:50;;;;;;;41.67;18.10;;;;;;;;;;5033109;28;20131;-67
2023/01/20 11:42:26;;;;;;;40.88;17.67;;;;;;;;;;5047578;28;20047;-68
2023/01/20 11:44:56;;;;;;;39.25;18.08;;;;;;;;;;5047501;28;20487;-67
2023/01/20 11:47:28;;;;;;;41.35;18.27;;;;;;;;;;5044313;28;20036;-67
2023/01/20 11:50:03;;;;;;;46.25;19.33;;;;;;;;;;5048877;28;20048;-69
2023/01/20 11:52:34;;;;;;;41.10;19.08;;;;;;;;;;5013826;28;20047;-69
2023/01/20 11:55:07;;;;;;;38.05;17.92;;;;;;;;;;5030761;28;20676;-69
2023/01/20 11:57:33;;;;;;;45.47;18.42;;;;;;;;;;5030456;28;20121;-71
2023/01/20 11:59:59;;;;;;;41.17;19.13;;;;;;;;;;5029069;28;20073;-69
2023/01/20 12:02:27;;;;;;;41.05;19.73;;;;;;;;;;5046460;28;20032;-67
2023/01/20 12:04:56;;;;;;;44.65;19.55;;;;;;;;;;5030765;28;20448;-67
2023/01/20 12:07:45;;;;;;;42.72;19.02;;;;;;;;;;5030020;28;20037;-67
2023/01/20 12:10:32;;;;;;;41.95;18.48;;;;;;;;;;5017926;28;20095;-67
2023/01/20 12:13:19;;;;;;;45.38;18.75;;;;;;;;;;5031353;28;20183;-67
2023/01/20 12:15:51;;;;;;;40.65;18.40;;;;;;;;;;5030501;28;20383;-67
2023/01/20 12:18:20;;;;;;;41.63;18.75;;;;;;;;;;5030468;28;20045;-68
2023/01/20 12:20:59;;;;;;;44.78;18.90;;;;;;;;;;5047554;28;20060;-68
2023/01/20 12:23:28;;;;;;;44.38;19.90;;;;;;;;;;5030500;28;20053;-68
2023/01/20 12:26:00;;;;;;;42.80;19.45;;;;;;;;;;5030353;28;20052;-67
2023/01/20 12:28:34;;;;;;;41.97;19.38;;;;;;;;;;5030870;28;20036;-67
2023/01/20 12:31:09;;;;;;;41.80;18.75;;;;;;;;;;5030253;28;20037;-68
2023/01/20 12:33:37;;;;;;;38.13;17.75;;;;;;;;;;5031253;28;20076;-67
2023/01/20 12:36:23;;;;;;;38.55;17.40;;;;;;;;;;5030693;28;20348;-67
2023/01/20 12:39:01;;;;;;;42.40;17.17;;;;;;;;;;5047877;28;20128;-67
2023/01/20 12:41:46;;;;;;;38.33;18.10;;;;;;;;;;5031396;28;20045;-68
2023/01/20 12:44:35;;;;;;;36.45;17.92;;;;;;;;;;5008400;28;20064;-68
2023/01/20 12:47:04;;;;;;;37.05;17.38;;;;;;;;;;5028214;28;20041;-69
2023/01/20 12:49:33;;;;;;;40.88;17.98;;;;;;;;;;5028812;28;20045;-69
2023/01/20 12:52:05;;;;;;;34.35;17.38;;;;;;;;;;5040447;28;20052;-69
2023/01/20 12:54:39;;;;;;;37.45;16.50;;;;;;;;;;5046145;28;20072;-69
2023/01/20 12:57:27;;;;;;;38.55;17.83;;;;;;;;;;5046260;28;20461;-70
2023/01/20 13:00:08;;;;;;;38.47;17.38;;;;;;;;;;5009191;28;20052;-68
2023/01/20 13:02:52;;;;;;;40.20;17.60;;;;;;;;;;5029757;28;20048;-69
2023/01/20 13:05:34;;;;;;;36.42;17.25;;;;;;;;;;5024651;28;20044;-69
2023/01/20 13:08:09;;;;;;;38.55;18.55;;;;;;;;;;5046911;28;20063;-67
2023/01/20 13:10:51;;;;;;;38.92;17.77;;;;;;;;;;5048383;28;20186;-67
2023/01/20 13:13:27;;;;;;;42.08;19.17;;;;;;;;;;5047607;28;20519;-67
2023/01/20 13:16:05;;;;;;;42.72;19.33;;;;;;;;;;5052418;28;20076;-68
2023/01/20 13:19:02;;;;;;;41.05;19.50;;;;;;;;;;5052441;28;20052;-66
2023/01/20 13:21:32;;;;;;;39.42;18.52;;;;;;;;;;5031255;28;20077;-68
2023/01/20 13:23:59;;;;;;;41.05;18.55;;;;;;;;;;5048741;28;20045;-68
2023/01/20 13:26:26;;;;;;;43.60;18.50;;;;;;;;;;5051245;28;20048;-67
2023/01/20 13:28:53;;;;;;;37.85;18.20;;;;;;;;;;5051534;28;20132;-68
2023/01/20 13:31:41;;;;;;;40.20;19.15;;;;;;;;;;5032059;28;20079;-69
2023/01/20 13:34:23;;;;;;;40.40;19.05;;;;;;;;;;5025927;28;20072;-67
2023/01/20 13:37:06;;;;;;;41.63;17.92;;;;;;;;;;5028432;28;20491;-69
2023/01/20 13:39:47;;;;;;;40.95;19.30;;;;;;;;;;5051617;28;20098;-67
2023/01/20 13:42:29;;;;;;;40.83;19.07;;;;;;;;;;5049410;28;20098;-70
2023/01/20 13:45:27;;;;;;;42.10;18.85;;;;;;;;;;5034862;28;20055;-70
2023/01/20 13:48:01;;;;;;;39.58;19.15;;;;;;;;;;4990488;28;20053;-68
2023/01/20 13:50:29;;;;;;;41.20;17.83;;;;;;;;;;5046548;28;20064;-67
2023/01/20 13:53:06;;;;;;;40.95;18.15;;;;;;;;;;5050475;28;20645;-67
2023/01/20 13:55:32;;;;;;;33.40;15.73;;;;;;;;;;5049441;28;20463;-67
2023/01/20 13:57:58;;;;;;;33.22;15.50;;;;;;;;;;5050963;28;20048;-68
2023/01/20 14:00:24;;;;;;;33.10;15.10;;;;;;;;;;5051255;28;20051;-67
2023/01/20 14:02:51;;;;;;;36.97;15.88;;;;;;;;;;5048957;28;20041;-67
2023/01/20 14:05:21;;;;;;;39.35;17.73;;;;;;;;;;5049984;28;20037;-69
2023/01/20 14:07:47;;;;;;;39.13;18.02;;;;;;;;;;5030414;28;20048;-68
2023/01/20 14:10:13;;;;;;;37.03;17.10;;;;;;;;;;5051226;28;20067;-67
2023/01/20 14:12:40;;;;;;;35.58;17.58;;;;;;;;;;5029914;28;20672;-68
2023/01/20 14:15:07;;;;;;;40.20;17.40;;;;;;;;;;5046104;28;20068;-68
2023/01/20 14:17:33;;;;;;;37.65;17.48;;;;;;;;;;5042779;28;20387;-68
2023/01/20 14:19:59;;;;;;;34.95;17.02;;;;;;;;;;5046624;28;20088;-67
2023/01/20 14:22:26;;;;;;;36.53;16.98;;;;;;;;;;5029354;28;20052;-67
2023/01/20 14:24:56;;;;;;;45.40;18.08;;;;;;;;;;5025366;28;20045;-68
2023/01/20 14:27:27;;;;;;;36.15;17.20;;;;;;;;;;5025611;28;20037;-68
2023/01/20 14:29:53;;;;;;;39.20;18.58;;;;;;;;;;5049381;28;20403;-69
2023/01/20 14:32:19;;;;;;;41.00;18.27;;;;;;;;;;5031301;28;20030;-69
2023/01/20 14:34:46;;;;;;;39.88;18.70;;;;;;;;;;5029334;28;20065;-68
2023/01/20 14:37:31;;;;;;;35.55;17.83;;;;;;;;;;5047192;28;20509;-68
2023/01/20 14:40:18;;;;;;;42.97;18.60;;;;;;;;;;5024048;28;20087;-67
2023/01/20 14:42:53;;;;;;;40.58;19.85;;;;;;;;;;5032399;28;20430;-69